sensor_id;sensor_type;location;lat;lon;timestamp;pressure;altitude;pressure_sealevel;temperature;humidity
26657;BME280;14279;50.010;8.260;2023-05-12T00:00:31;100210.59;;;13.04;100.00
26657;BME280;14279;50.010;8.260;2023-05-12T00:02:56;100209.78;;;13.18;100.00
26657;BME280;14279;50.010;8.260;2023-05-12T00:05:21;100207.34;;;13.15;100.00
26657;BME280;14279;50.010;8.260;2023-05-12T00:07:46;100217.44;;;13.21;100.00
26657;BME280;14279;50.010;8.260;2023-05-12T00:10:12;100212.03;;;13.25;100.00
26657;BME280;14279;50.010;8.260;2023-05-12T00:12:38;100211.50;;;13.34;100.00
26657;BME280;14279;50.010;8.260;2023-05-12T00:15:04;100209.06;;;13.31;100.00
26657;BME280;14279;50.010;8.260;2023-05-12T00:17:29;100212.13;;;13.37;100.00
26657;BME280;14279;50.010;8.260;2023-05-12T00:19:54;100205.69;;;13.29;100.00
26657;BME280;14279;50.010;8.260;2023-05-12T00:22:20;100204.28;;;13.23;100.00
26657;BME280;14279;50.010;8.260;2023-05-12T00:24:45;100202.88;;;13.17;100.00
26657;BME280;14279;50.010;8.260;2023-05-12T00:27:10;100209.03;;;13.16;100.00
26657;BME280;14279;50.010;8.260;2023-05-12T00:29:35;100205.41;;;13.19;100.00
26657;BME280;14279;50.010;8.260;2023-05-12T00:32:01;100208.75;;;13.21;100.00
26657;BME280;14279;50.010;8.260;2023-05-12T00:34:26;100204.38;;;13.21;100.00
26657;BME280;14279;50.010;8.260;2023-05-12T00:36:52;100208.84;;;13.19;100.00
26657;BME280;14279;50.010;8.260;2023-05-12T00:39:17;100201.19;;;13.16;100.00
26657;BME280;14279;50.010;8.260;2023-05-12T00:41:42;100198.03;;;13.11;100.00
26657;BME280;14279;50.010;8.260;2023-05-12T00:44:08;100200.25;;;13.17;100.00
26657;BME280;14279;50.010;8.260;2023-05-12T00:46:33;100193.84;;;13.23;100.00
26657;BME280;14279;50.010;8.260;2023-05-12T00:48:58;100200.63;;;13.11;100.00
26657;BME280;14279;50.010;8.260;2023-05-12T00:51:24;100194.84;;;13.20;100.00
26657;BME280;14279;50.010;8.260;2023-05-12T00:53:50;100193.44;;;13.15;100.00
26657;BME280;14279;50.010;8.260;2023-05-12T00:56:17;100193.72;;;13.25;100.00
26657;BME280;14279;50.010;8.260;2023-05-12T00:58:43;100192.78;;;13.26;100.00
26657;BME280;14279;50.010;8.260;2023-05-12T01:01:09;100191.31;;;13.36;100.00
26657;BME280;14279;50.010;8.260;2023-05-12T01:03:34;100190.34;;;13.08;100.00
26657;BME280;14279;50.010;8.260;2023-05-12T01:06:06;100190.47;;;13.21;100.00
26657;BME280;14279;50.010;8.260;2023-05-12T01:08:34;100198.97;;;13.25;100.00
26657;BME280;14279;50.010;8.260;2023-05-12T01:10:59;100190.19;;;13.26;100.00
26657;BME280;14279;50.010;8.260;2023-05-12T01:13:26;100199.59;;;13.14;100.00
26657;BME280;14279;50.010;8.260;2023-05-12T01:15:52;100193.34;;;13.16;100.00
26657;BME280;14279;50.010;8.260;2023-05-12T01:18:20;100194.84;;;13.20;100.00
26657;BME280;14279;50.010;8.260;2023-05-12T01:20:47;100193.72;;;13.10;100.00
26657;BME280;14279;50.010;8.260;2023-05-12T01:23:17;100192.97;;;13.08;100.00
26657;BME280;14279;50.010;8.260;2023-05-12T01:25:47;100194.84;;;13.06;100.00
26657;BME280;14279;50.010;8.260;2023-05-12T01:28:14;100187.25;;;13.01;100.00
26657;BME280;14279;50.010;8.260;2023-05-12T01:30:41;100186.13;;;13.05;100.00
26657;BME280;14279;50.010;8.260;2023-05-12T01:33:08;100187.81;;;13.06;100.00
26657;BME280;14279;50.010;8.260;2023-05-12T01:35:33;100192.59;;;13.14;100.00
26657;BME280;14279;50.010;8.260;2023-05-12T01:37:59;100190.91;;;13.13;100.00
26657;BME280;14279;50.010;8.260;2023-05-12T01:40:24;100195.88;;;13.18;100.00
26657;BME280;14279;50.010;8.260;2023-05-12T01:42:49;100194.38;;;13.14;100.00
26657;BME280;14279;50.010;8.260;2023-05-12T01:45:14;100195.94;;;13.16;100.00
26657;BME280;14279;50.010;8.260;2023-05-12T01:47:40;100196.22;;;13.12;100.00
26657;BME280;14279;50.010;8.260;2023-05-12T01:50:05;100188.28;;;13.13;100.00
26657;BME280;14279;50.010;8.260;2023-05-12T01:52:31;100194.28;;;13.15;100.00
26657;BME280;14279;50.010;8.260;2023-05-12T01:54:57;100195.78;;;13.19;100.00
26657;BME280;14279;50.010;8.260;2023-05-12T01:57:22;100191.66;;;13.15;100.00
26657;BME280;14279;50.010;8.260;2023-05-12T01:59:47;100203.03;;;13.14;100.00
26657;BME280;14279;50.010;8.260;2023-05-12T02:02:12;100202.97;;;13.16;100.00
26657;BME280;14279;50.010;8.260;2023-05-12T02:04:37;100192.59;;;13.14;100.00
26657;BME280;14279;50.010;8.260;2023-05-12T02:07:03;100204.25;;;13.08;100.00
26657;BME280;14279;50.010;8.260;2023-05-12T02:09:28;100201.00;;;13.05;100.00
26657;BME280;14279;50.010;8.260;2023-05-12T02:11:53;100202.56;;;13.07;100.00
26657;BME280;14279;50.010;8.260;2023-05-12T02:14:19;100203.25;;;13.11;100.00
26657;BME280;14279;50.010;8.260;2023-05-12T02:16:44;100207.50;;;13.12;100.00
26657;BME280;14279;50.010;8.260;2023-05-12T02:19:09;100215.19;;;13.15;100.00
26657;BME280;14279;50.010;8.260;2023-05-12T02:21:34;100207.44;;;13.14;100.00
26657;BME280;14279;50.010;8.260;2023-05-12T02:24:00;100203.72;;;13.18;100.00
26657;BME280;14279;50.010;8.260;2023-05-12T02:26:25;100211.44;;;13.19;100.00
26657;BME280;14279;50.010;8.260;2023-05-12T02:28:50;100214.53;;;13.26;100.00
26657;BME280;14279;50.010;8.260;2023-05-12T02:31:15;100205.75;;;13.27;100.00
26657;BME280;14279;50.010;8.260;2023-05-12T02:33:41;100209.06;;;13.31;100.00
26657;BME280;14279;50.010;8.260;2023-05-12T02:36:06;100203.53;;;13.35;100.00
26657;BME280;14279;50.010;8.260;2023-05-12T02:38:32;100207.19;;;13.33;100.00
26657;BME280;14279;50.010;8.260;2023-05-12T02:40:57;100214.00;;;13.35;100.00
26657;BME280;14279;50.010;8.260;2023-05-12T02:43:22;100212.03;;;13.39;100.00
26657;BME280;14279;50.010;8.260;2023-05-12T02:45:47;100215.56;;;13.38;100.00
26657;BME280;14279;50.010;8.260;2023-05-12T02:48:13;100211.88;;;13.42;100.00
26657;BME280;14279;50.010;8.260;2023-05-12T02:50:38;100223.09;;;13.44;100.00
26657;BME280;14279;50.010;8.260;2023-05-12T02:53:03;100209.25;;;13.42;100.00
26657;BME280;14279;50.010;8.260;2023-05-12T02:55:28;100217.25;;;13.39;100.00
26657;BME280;14279;50.010;8.260;2023-05-12T02:57:54;100207.94;;;13.35;100.00
26657;BME280;14279;50.010;8.260;2023-05-12T03:00:19;100218.72;;;13.45;100.00
26657;BME280;14279;50.010;8.260;2023-05-12T03:02:45;100217.31;;;13.53;100.00
26657;BME280;14279;50.010;8.260;2023-05-12T03:05:10;100214.31;;;13.45;100.00
26657;BME280;14279;50.010;8.260;2023-05-12T03:07:35;100221.78;;;13.51;100.00
26657;BME280;14279;50.010;8.260;2023-05-12T03:10:01;100222.53;;;13.53;100.00
26657;BME280;14279;50.010;8.260;2023-05-12T03:12:26;100225.53;;;13.47;100.00
26657;BME280;14279;50.010;8.260;2023-05-12T03:14:54;100218.59;;;13.46;100.00
26657;BME280;14279;50.010;8.260;2023-05-12T03:17:20;100227.19;;;13.48;100.00
26657;BME280;14279;50.010;8.260;2023-05-12T03:19:46;100220.47;;;13.44;100.00
26657;BME280;14279;50.010;8.260;2023-05-12T03:22:11;100220.91;;;13.36;100.00
26657;BME280;14279;50.010;8.260;2023-05-12T03:24:36;100220.81;;;13.38;100.00
26657;BME280;14279;50.010;8.260;2023-05-12T03:27:02;100224.75;;;13.45;100.00
26657;BME280;14279;50.010;8.260;2023-05-12T03:29:27;100223.84;;;13.46;100.00
26657;BME280;14279;50.010;8.260;2023-05-12T03:31:52;100230.63;;;13.49;100.00
26657;BME280;14279;50.010;8.260;2023-05-12T03:34:18;100219.66;;;13.44;100.00
26657;BME280;14279;50.010;8.260;2023-05-12T03:36:43;100223.75;;;13.48;100.00
26657;BME280;14279;50.010;8.260;2023-05-12T03:39:09;100224.69;;;13.47;100.00
26657;BME280;14279;50.010;8.260;2023-05-12T03:41:35;100231.59;;;13.48;100.00
26657;BME280;14279;50.010;8.260;2023-05-12T03:44:01;100230.19;;;13.57;100.00
26657;BME280;14279;50.010;8.260;2023-05-12T03:46:26;100231.50;;;13.49;100.00
26657;BME280;14279;50.010;8.260;2023-05-12T03:48:52;100228.88;;;13.49;100.00
26657;BME280;14279;50.010;8.260;2023-05-12T03:51:17;100232.53;;;13.47;100.00
26657;BME280;14279;50.010;8.260;2023-05-12T03:53:42;100226.38;;;13.48;100.00
26657;BME280;14279;50.010;8.260;2023-05-12T03:56:10;100227.09;;;13.50;100.00
26657;BME280;14279;50.010;8.260;2023-05-12T03:58:35;100228.69;;;13.52;100.00
26657;BME280;14279;50.010;8.260;2023-05-12T04:01:01;100225.22;;;13.37;100.00
26657;BME280;14279;50.010;8.260;2023-05-12T04:03:29;100229.25;;;13.43;100.00
26657;BME280;14279;50.010;8.260;2023-05-12T04:05:59;100227.09;;;13.50;100.00
26657;BME280;14279;50.010;8.260;2023-05-12T04:08:25;100229.16;;;13.45;100.00
26657;BME280;14279;50.010;8.260;2023-05-12T04:10:53;100229.56;;;13.37;100.00
26657;BME280;14279;50.010;8.260;2023-05-12T04:13:19;100231.19;;;13.40;100.00
26657;BME280;14279;50.010;8.260;2023-05-12T04:15:44;100233.16;;;13.36;100.00
26657;BME280;14279;50.010;8.260;2023-05-12T04:18:09;100228.75;;;13.22;100.00
26657;BME280;14279;50.010;8.260;2023-05-12T04:20:34;100228.47;;;13.27;100.00
26657;BME280;14279;50.010;8.260;2023-05-12T04:23:00;100232.00;;;13.26;100.00
26657;BME280;14279;50.010;8.260;2023-05-12T04:25:25;100237.41;;;13.22;100.00
26657;BME280;14279;50.010;8.260;2023-05-12T04:27:50;100238.91;;;13.27;100.00
26657;BME280;14279;50.010;8.260;2023-05-12T04:30:15;100240.66;;;13.12;100.00
26657;BME280;14279;50.010;8.260;2023-05-12T04:32:41;100242.53;;;13.10;100.00
26657;BME280;14279;50.010;8.260;2023-05-12T04:35:06;100243.56;;;13.07;100.00
26657;BME280;14279;50.010;8.260;2023-05-12T04:37:31;100243.06;;;13.00;100.00
26657;BME280;14279;50.010;8.260;2023-05-12T04:39:57;100245.53;;;13.18;100.00
26657;BME280;14279;50.010;8.260;2023-05-12T04:42:22;100252.16;;;13.23;100.00
26657;BME280;14279;50.010;8.260;2023-05-12T04:44:47;100257.69;;;13.33;100.00
26657;BME280;14279;50.010;8.260;2023-05-12T04:47:12;100250.41;;;13.24;100.00
26657;BME280;14279;50.010;8.260;2023-05-12T04:49:38;100253.84;;;13.39;99.11
26657;BME280;14279;50.010;8.260;2023-05-12T04:52:03;100253.72;;;13.42;98.80
26657;BME280;14279;50.010;8.260;2023-05-12T04:54:32;100265.19;;;13.40;97.77
26657;BME280;14279;50.010;8.260;2023-05-12T04:56:57;100258.34;;;13.37;98.19
26657;BME280;14279;50.010;8.260;2023-05-12T04:59:22;100266.78;;;13.42;97.35
26657;BME280;14279;50.010;8.260;2023-05-12T05:01:48;100266.06;;;13.55;97.15
26657;BME280;14279;50.010;8.260;2023-05-12T05:04:13;100271.09;;;13.43;97.27
26657;BME280;14279;50.010;8.260;2023-05-12T05:06:39;100271.84;;;13.45;97.36
26657;BME280;14279;50.010;8.260;2023-05-12T05:09:04;100268.22;;;13.48;97.83
26657;BME280;14279;50.010;8.260;2023-05-12T05:11:29;100274.94;;;13.66;97.34
26657;BME280;14279;50.010;8.260;2023-05-12T05:13:54;100272.59;;;13.62;96.84
26657;BME280;14279;50.010;8.260;2023-05-12T05:16:20;100273.53;;;13.46;96.61
26657;BME280;14279;50.010;8.260;2023-05-12T05:18:46;100272.00;;;13.42;97.36
26657;BME280;14279;50.010;8.260;2023-05-12T05:21:11;100279.34;;;13.35;96.97
26657;BME280;14279;50.010;8.260;2023-05-12T05:23:38;100278.00;;;13.44;96.29
26657;BME280;14279;50.010;8.260;2023-05-12T05:26:03;100279.13;;;13.55;95.77
26657;BME280;14279;50.010;8.260;2023-05-12T05:28:29;100285.66;;;13.47;95.62
26657;BME280;14279;50.010;8.260;2023-05-12T05:30:55;100285.78;;;13.46;96.00
26657;BME280;14279;50.010;8.260;2023-05-12T05:33:20;100292.03;;;13.72;95.04
26657;BME280;14279;50.010;8.260;2023-05-12T05:35:45;100292.41;;;13.80;94.88
26657;BME280;14279;50.010;8.260;2023-05-12T05:38:12;100293.16;;;13.82;94.50
26657;BME280;14279;50.010;8.260;2023-05-12T05:40:37;100297.47;;;13.83;93.94
26657;BME280;14279;50.010;8.260;2023-05-12T05:43:03;100292.88;;;13.87;93.80
26657;BME280;14279;50.010;8.260;2023-05-12T05:45:29;100297.38;;;13.85;94.10
26657;BME280;14279;50.010;8.260;2023-05-12T05:47:59;100303.50;;;13.98;93.78
26657;BME280;14279;50.010;8.260;2023-05-12T05:50:24;100304.47;;;13.83;92.77
26657;BME280;14279;50.010;8.260;2023-05-12T05:52:50;100316.25;;;13.90;93.52
26657;BME280;14279;50.010;8.260;2023-05-12T05:55:27;100308.59;;;13.87;93.29
26657;BME280;14279;50.010;8.260;2023-05-12T05:57:52;100314.66;;;13.73;93.90
26657;BME280;14279;50.010;8.260;2023-05-12T06:00:17;100311.00;;;13.61;94.22
26657;BME280;14279;50.010;8.260;2023-05-12T06:02:43;100314.25;;;13.65;94.18
26657;BME280;14279;50.010;8.260;2023-05-12T06:05:08;100315.19;;;13.64;93.99
26657;BME280;14279;50.010;8.260;2023-05-12T06:07:33;100314.53;;;13.60;95.06
26657;BME280;14279;50.010;8.260;2023-05-12T06:09:58;100322.59;;;13.72;94.31
26657;BME280;14279;50.010;8.260;2023-05-12T06:12:24;100326.16;;;13.85;93.39
26657;BME280;14279;50.010;8.260;2023-05-12T06:14:49;100327.44;;;13.78;93.97
26657;BME280;14279;50.010;8.260;2023-05-12T06:17:15;100328.94;;;13.96;93.22
26657;BME280;14279;50.010;8.260;2023-05-12T06:19:40;100335.03;;;13.82;92.88
26657;BME280;14279;50.010;8.260;2023-05-12T06:22:06;100332.38;;;14.11;91.53
26657;BME280;14279;50.010;8.260;2023-05-12T06:24:31;100334.75;;;13.87;91.71
26657;BME280;14279;50.010;8.260;2023-05-12T06:26:59;100344.94;;;13.92;92.41
26657;BME280;14279;50.010;8.260;2023-05-12T06:29:25;100342.78;;;13.84;91.51
26657;BME280;14279;50.010;8.260;2023-05-12T06:31:50;100337.38;;;13.87;92.55
26657;BME280;14279;50.010;8.260;2023-05-12T06:34:15;100346.25;;;13.99;91.51
26657;BME280;14279;50.010;8.260;2023-05-12T06:36:41;100344.84;;;13.93;92.14
26657;BME280;14279;50.010;8.260;2023-05-12T06:39:06;100344.34;;;13.87;91.05
26657;BME280;14279;50.010;8.260;2023-05-12T06:41:31;100340.16;;;13.70;91.83
26657;BME280;14279;50.010;8.260;2023-05-12T06:43:57;100353.25;;;13.84;91.59
26657;BME280;14279;50.010;8.260;2023-05-12T06:46:25;100345.50;;;13.82;91.27
26657;BME280;14279;50.010;8.260;2023-05-12T06:48:50;100357.00;;;13.94;90.76
26657;BME280;14279;50.010;8.260;2023-05-12T06:51:16;100352.50;;;13.82;91.52
26657;BME280;14279;50.010;8.260;2023-05-12T06:53:41;100356.41;;;13.75;91.93
26657;BME280;14279;50.010;8.260;2023-05-12T06:56:07;100355.97;;;13.97;90.78
26657;BME280;14279;50.010;8.260;2023-05-12T06:58:33;100355.31;;;13.93;90.72
26657;BME280;14279;50.010;8.260;2023-05-12T07:00:58;100358.22;;;14.03;90.51
26657;BME280;14279;50.010;8.260;2023-05-12T07:03:24;100363.81;;;13.97;90.94
26657;BME280;14279;50.010;8.260;2023-05-12T07:05:49;100366.16;;;14.16;89.80
26657;BME280;14279;50.010;8.260;2023-05-12T07:08:15;100366.81;;;14.20;89.62
26657;BME280;14279;50.010;8.260;2023-05-12T07:10:41;100368.69;;;14.03;89.80
26657;BME280;14279;50.010;8.260;2023-05-12T07:13:06;100370.16;;;13.93;90.04
26657;BME280;14279;50.010;8.260;2023-05-12T07:15:32;100364.28;;;14.04;90.33
26657;BME280;14279;50.010;8.260;2023-05-12T07:17:57;100364.66;;;14.12;88.99
26657;BME280;14279;50.010;8.260;2023-05-12T07:20:22;100362.31;;;14.22;88.63
26657;BME280;14279;50.010;8.260;2023-05-12T07:22:47;100369.13;;;14.39;87.30
26657;BME280;14279;50.010;8.260;2023-05-12T07:25:13;100365.31;;;14.01;87.67
26657;BME280;14279;50.010;8.260;2023-05-12T07:27:40;100373.81;;;14.34;87.21
26657;BME280;14279;50.010;8.260;2023-05-12T07:30:05;100372.69;;;14.23;87.09
26657;BME280;14279;50.010;8.260;2023-05-12T07:32:31;100365.06;;;14.62;85.30
26657;BME280;14279;50.010;8.260;2023-05-12T07:34:56;100364.09;;;14.92;83.67
26657;BME280;14279;50.010;8.260;2023-05-12T07:37:21;100371.41;;;14.87;83.63
26657;BME280;14279;50.010;8.260;2023-05-12T07:39:46;100364.19;;;14.91;82.88
26657;BME280;14279;50.010;8.260;2023-05-12T07:42:12;100375.78;;;15.14;82.80
26657;BME280;14279;50.010;8.260;2023-05-12T07:44:37;100364.97;;;15.46;81.20
26657;BME280;14279;50.010;8.260;2023-05-12T07:47:02;100362.97;;;15.50;80.48
26657;BME280;14279;50.010;8.260;2023-05-12T07:49:28;100360.63;;;15.32;81.58
26657;BME280;14279;50.010;8.260;2023-05-12T07:51:53;100364.38;;;15.15;81.63
26657;BME280;14279;50.010;8.260;2023-05-12T07:54:18;100369.75;;;15.26;80.21
26657;BME280;14279;50.010;8.260;2023-05-12T07:56:44;100366.34;;;15.52;80.32
26657;BME280;14279;50.010;8.260;2023-05-12T07:59:09;100371.53;;;15.26;80.64
26657;BME280;14279;50.010;8.260;2023-05-12T08:01:35;100372.69;;;14.94;80.92
26657;BME280;14279;50.010;8.260;2023-05-12T08:04:01;100375.00;;;14.99;81.28
26657;BME280;14279;50.010;8.260;2023-05-12T08:06:26;100375.44;;;14.78;81.76
26657;BME280;14279;50.010;8.260;2023-05-12T08:08:51;100379.56;;;14.82;81.54
26657;BME280;14279;50.010;8.260;2023-05-12T08:11:17;100386.06;;;14.48;83.70
26657;BME280;14279;50.010;8.260;2023-05-12T08:13:42;100381.75;;;14.47;84.10
26657;BME280;14279;50.010;8.260;2023-05-12T08:16:08;100378.00;;;14.51;83.21
26657;BME280;14279;50.010;8.260;2023-05-12T08:18:33;100386.09;;;14.90;81.59
26657;BME280;14279;50.010;8.260;2023-05-12T08:20:58;100389.78;;;14.72;82.08
26657;BME280;14279;50.010;8.260;2023-05-12T08:23:23;100381.88;;;14.87;81.62
26657;BME280;14279;50.010;8.260;2023-05-12T08:25:48;100387.97;;;15.15;80.75
26657;BME280;14279;50.010;8.260;2023-05-12T08:28:14;100381.59;;;14.92;81.06
26657;BME280;14279;50.010;8.260;2023-05-12T08:30:40;100383.25;;;15.20;80.05
26657;BME280;14279;50.010;8.260;2023-05-12T08:33:05;100380.78;;;15.04;80.61
26657;BME280;14279;50.010;8.260;2023-05-12T08:35:31;100384.22;;;15.19;79.83
26657;BME280;14279;50.010;8.260;2023-05-12T08:37:56;100387.13;;;14.87;80.70
26657;BME280;14279;50.010;8.260;2023-05-12T08:40:23;100384.50;;;14.87;80.45
26657;BME280;14279;50.010;8.260;2023-05-12T08:43:23;100394.78;;;14.90;80.99
26657;BME280;14279;50.010;8.260;2023-05-12T08:45:50;100399.03;;;15.06;79.81
26657;BME280;14279;50.010;8.260;2023-05-12T08:48:17;100396.25;;;15.22;79.50
26657;BME280;14279;50.010;8.260;2023-05-12T08:50:44;100395.28;;;15.10;80.23
26657;BME280;14279;50.010;8.260;2023-05-12T08:53:12;100398.81;;;15.23;78.97
26657;BME280;14279;50.010;8.260;2023-05-12T08:55:40;100393.28;;;15.41;77.81
26657;BME280;14279;50.010;8.260;2023-05-12T08:58:07;100388.38;;;15.49;77.60
26657;BME280;14279;50.010;8.260;2023-05-12T09:00:33;100385.56;;;15.78;76.66
26657;BME280;14279;50.010;8.260;2023-05-12T09:03:01;100391.13;;;15.73;75.90
26657;BME280;14279;50.010;8.260;2023-05-12T09:05:29;100375.84;;;16.06;74.10
26657;BME280;14279;50.010;8.260;2023-05-12T09:07:56;100385.44;;;16.57;72.41
26657;BME280;14279;50.010;8.260;2023-05-12T09:10:23;100377.47;;;16.46;72.94
26657;BME280;14279;50.010;8.260;2023-05-12T09:12:50;100379.31;;;16.19;72.61
26657;BME280;14279;50.010;8.260;2023-05-12T09:15:19;100377.78;;;16.78;70.07
26657;BME280;14279;50.010;8.260;2023-05-12T09:17:46;100375.66;;;16.83;69.79
26657;BME280;14279;50.010;8.260;2023-05-12T09:20:12;100378.34;;;16.71;70.78
26657;BME280;14279;50.010;8.260;2023-05-12T09:22:38;100374.19;;;16.79;68.67
26657;BME280;14279;50.010;8.260;2023-05-12T09:25:19;100374.16;;;16.68;68.57
26657;BME280;14279;50.010;8.260;2023-05-12T09:27:46;100375.38;;;17.12;67.40
26657;BME280;14279;50.010;8.260;2023-05-12T09:30:12;100375.56;;;16.85;67.59
26657;BME280;14279;50.010;8.260;2023-05-12T09:32:40;100378.06;;;16.87;68.71
26657;BME280;14279;50.010;8.260;2023-05-12T09:35:09;100378.69;;;16.90;68.15
26657;BME280;14279;50.010;8.260;2023-05-12T09:37:35;100378.06;;;16.87;68.64
26657;BME280;14279;50.010;8.260;2023-05-12T09:40:03;100378.50;;;17.18;67.17
26657;BME280;14279;50.010;8.260;2023-05-12T09:42:31;100373.59;;;16.76;67.64
26657;BME280;14279;50.010;8.260;2023-05-12T09:45:04;100374.88;;;16.94;67.19
26657;BME280;14279;50.010;8.260;2023-05-12T09:47:33;100369.59;;;17.07;67.14
26657;BME280;14279;50.010;8.260;2023-05-12T09:50:04;100377.19;;;17.23;66.21
26657;BME280;14279;50.010;8.260;2023-05-12T09:52:34;100370.09;;;17.48;65.35
26657;BME280;14279;50.010;8.260;2023-05-12T09:55:10;100369.97;;;17.38;65.19
26657;BME280;14279;50.010;8.260;2023-05-12T09:57:41;100365.47;;;17.75;64.79
26657;BME280;14279;50.010;8.260;2023-05-12T10:00:08;100366.66;;;17.70;64.44
26657;BME280;14279;50.010;8.260;2023-05-12T10:02:37;100369.75;;;17.17;65.67
26657;BME280;14279;50.010;8.260;2023-05-12T10:05:05;100370.53;;;16.82;67.65
26657;BME280;14279;50.010;8.260;2023-05-12T10:07:32;100367.25;;;16.78;68.03
26657;BME280;14279;50.010;8.260;2023-05-12T10:10:00;100372.00;;;16.49;68.94
26657;BME280;14279;50.010;8.260;2023-05-12T10:12:27;100371.09;;;16.11;69.62
26657;BME280;14279;50.010;8.260;2023-05-12T10:14:52;100362.41;;;16.11;70.25
26657;BME280;14279;50.010;8.260;2023-05-12T10:17:19;100372.25;;;16.07;70.79
26657;BME280;14279;50.010;8.260;2023-05-12T10:19:46;100369.63;;;16.07;70.47
26657;BME280;14279;50.010;8.260;2023-05-12T10:22:14;100372.59;;;15.89;70.22
26657;BME280;14279;50.010;8.260;2023-05-12T10:24:40;100369.44;;;15.97;71.08
26657;BME280;14279;50.010;8.260;2023-05-12T10:27:06;100371.84;;;16.00;70.53
26657;BME280;14279;50.010;8.260;2023-05-12T10:29:32;100368.41;;;16.00;70.34
26657;BME280;14279;50.010;8.260;2023-05-12T10:31:59;100370.50;;;16.07;70.49
26657;BME280;14279;50.010;8.260;2023-05-12T10:34:35;100376.28;;;15.87;70.65
26657;BME280;14279;50.010;8.260;2023-05-12T10:37:04;100372.38;;;15.92;70.42
26657;BME280;14279;50.010;8.260;2023-05-12T10:39:35;100369.22;;;16.00;70.38
26657;BME280;14279;50.010;8.260;2023-05-12T10:42:08;100365.00;;;16.36;69.13
26657;BME280;14279;50.010;8.260;2023-05-12T10:44:35;100371.91;;;16.37;69.43
26657;BME280;14279;50.010;8.260;2023-05-12T10:47:01;100369.09;;;16.02;70.00
26657;BME280;14279;50.010;8.260;2023-05-12T10:49:39;100370.50;;;16.07;70.48
26657;BME280;14279;50.010;8.260;2023-05-12T10:52:05;100371.63;;;16.16;70.04
26657;BME280;14279;50.010;8.260;2023-05-12T10:54:38;100373.00;;;16.09;70.75
26657;BME280;14279;50.010;8.260;2023-05-12T10:57:11;100380.34;;;15.91;72.10
26657;BME280;14279;50.010;8.260;2023-05-12T10:59:46;100377.19;;;15.73;74.58
26657;BME280;14279;50.010;8.260;2023-05-12T11:02:14;100381.38;;;15.75;74.64
26657;BME280;14279;50.010;8.260;2023-05-12T11:04:58;100375.69;;;15.69;75.80
26657;BME280;14279;50.010;8.260;2023-05-12T11:07:25;100378.34;;;15.82;75.99
26657;BME280;14279;50.010;8.260;2023-05-12T11:09:53;100382.50;;;15.71;77.49
26657;BME280;14279;50.010;8.260;2023-05-12T11:12:19;100387.25;;;15.79;77.42
26657;BME280;14279;50.010;8.260;2023-05-12T11:14:45;100388.63;;;15.85;76.93
26657;BME280;14279;50.010;8.260;2023-05-12T11:17:11;100388.13;;;16.05;76.58
26657;BME280;14279;50.010;8.260;2023-05-12T11:19:38;100379.38;;;16.31;75.97
26657;BME280;14279;50.010;8.260;2023-05-12T11:22:08;100378.50;;;16.80;74.12
26657;BME280;14279;50.010;8.260;2023-05-12T11:24:35;100381.31;;;16.90;72.80
26657;BME280;14279;50.010;8.260;2023-05-12T11:27:02;100387.06;;;17.08;72.95
26657;BME280;14279;50.010;8.260;2023-05-12T11:29:28;100387.31;;;17.41;71.39
26657;BME280;14279;50.010;8.260;2023-05-12T11:31:53;100379.69;;;17.61;70.40
26657;BME280;14279;50.010;8.260;2023-05-12T11:34:23;100387.00;;;17.21;69.37
26657;BME280;14279;50.010;8.260;2023-05-12T11:36:51;100393.44;;;17.17;70.54
26657;BME280;14279;50.010;8.260;2023-05-12T11:41:46;100385.22;;;16.97;70.36
26657;BME280;14279;50.010;8.260;2023-05-12T11:44:16;100385.66;;;16.78;71.68
26657;BME280;14279;50.010;8.260;2023-05-12T11:47:13;100384.63;;;16.81;71.26
26657;BME280;14279;50.010;8.260;2023-05-12T11:49:52;100387.72;;;16.62;71.38
26657;BME280;14279;50.010;8.260;2023-05-12T11:52:22;100393.31;;;16.57;71.24
26657;BME280;14279;50.010;8.260;2023-05-12T11:54:58;100385.00;;;16.50;72.28
26657;BME280;14279;50.010;8.260;2023-05-12T11:57:29;100391.63;;;16.56;72.20
26657;BME280;14279;50.010;8.260;2023-05-12T11:59:57;100388.66;;;16.61;72.62
26657;BME280;14279;50.010;8.260;2023-05-12T12:02:24;100390.94;;;16.78;71.37
26657;BME280;14279;50.010;8.260;2023-05-12T12:04:49;100402.88;;;16.95;70.53
26657;BME280;14279;50.010;8.260;2023-05-12T12:07:15;100401.94;;;16.59;71.11
26657;BME280;14279;50.010;8.260;2023-05-12T12:09:42;100404.16;;;16.40;71.50
26657;BME280;14279;50.010;8.260;2023-05-12T12:12:09;100415.50;;;16.90;70.48
26657;BME280;14279;50.010;8.260;2023-05-12T12:14:36;100419.34;;;17.10;70.15
26657;BME280;14279;50.010;8.260;2023-05-12T12:17:02;100417.84;;;17.19;70.06
26657;BME280;14279;50.010;8.260;2023-05-12T12:19:28;100412.72;;;17.53;69.27
26657;BME280;14279;50.010;8.260;2023-05-12T12:21:54;100414.91;;;17.71;69.28
26657;BME280;14279;50.010;8.260;2023-05-12T12:24:20;100415.69;;;17.96;68.89
26657;BME280;14279;50.010;8.260;2023-05-12T12:26:45;100416.31;;;18.11;68.17
26657;BME280;14279;50.010;8.260;2023-05-12T12:29:11;100422.81;;;18.41;68.05
26657;BME280;14279;50.010;8.260;2023-05-12T12:31:36;100428.41;;;18.02;68.44
26657;BME280;14279;50.010;8.260;2023-05-12T12:34:02;100419.66;;;17.54;69.92
26657;BME280;14279;50.010;8.260;2023-05-12T12:36:29;100423.72;;;17.58;69.35
26657;BME280;14279;50.010;8.260;2023-05-12T12:38:54;100423.03;;;17.32;71.55
26657;BME280;14279;50.010;8.260;2023-05-12T12:41:19;100420.19;;;17.35;71.78
26657;BME280;14279;50.010;8.260;2023-05-12T12:43:44;100425.16;;;17.27;71.81